Terminal Aerodrome Forecast
Issued by NWS Cleveland, OH

Home | Current Version | Previous Version | Graphics & Text | Print | Product List | Glossary Off
Versions: 1 2 3 4 5 6 7 8 9 10 11 12 13 14 15

000
FTUS41 KCLE 281728
TAFCAK
TAF
KCAK 281728Z 2818/2918 VRB04KT P6SM VCSH SCT050 OVC150
      TEMPO 2819/2821 08005KT -SHRA BKN040 OVC100
     FM282100 08004KT P6SM VCSH BKN050 OVC150
     FM290100 VRB03KT P6SM BKN090
     FM290800 VRB02KT 3SM BR BKN090
     FM291400 34004KT P6SM SCT040 BKN100=

USA.gov is the U.S. government's official web portal to all federal, state and local government web resources and services.